Time;durP1;ratioP1;P1;durP2;ratioP2;P2;SDS_P1;SDS_P2;PMS_P1;PMS_P2;Temp;Humidity;BMP_temperature;BMP_pressure;BME280_temperature;BME280_humidity;BME280_pressure;Samples;Min_cycle;Max_cycle;Signal;HPM_P1;HPM_P2
2021/10/31 05:01:55;;;;;;;9.23;8.43;;;12.00;99.90;;;;;;5303222;22;20494;-71
2021/10/31 05:04:22;;;;;;;11.03;10.03;;;12.00;99.90;;;;;;4975938;28;20486;-70
2021/10/31 05:06:49;;;;;;;10.03;9.13;;;12.00;99.90;;;;;;4976323;28;20478;-70
2021/10/31 05:09:16;;;;;;;10.23;9.40;;;12.00;99.90;;;;;;4976693;28;20458;-70
2021/10/31 05:11:43;;;;;;;10.10;9.20;;;11.90;99.90;;;;;;4976551;28;20482;-70
2021/10/31 05:14:09;;;;;;;10.83;9.90;;;11.90;99.90;;;;;;4976811;28;20458;-70
2021/10/31 05:16:37;;;;;;;11.67;10.57;;;11.90;99.90;;;;;;4976319;28;20455;-71
2021/10/31 05:19:06;;;;;;;11.37;10.37;;;11.80;99.90;;;;;;4976304;28;20489;-70
2021/10/31 05:21:33;;;;;;;10.43;9.53;;;11.80;99.90;;;;;;4987675;28;20489;-70
2021/10/31 05:24:00;;;;;;;11.67;10.67;;;11.80;99.90;;;;;;4989064;28;20494;-70
2021/10/31 05:26:27;;;;;;;11.40;10.10;;;11.80;99.90;;;;;;4977856;28;20471;-70
2021/10/31 05:28:54;;;;;;;11.33;10.23;;;11.70;99.90;;;;;;4979259;28;20454;-70
2021/10/31 05:31:21;;;;;;;12.90;11.70;;;11.70;99.90;;;;;;4978203;28;21016;-70
2021/10/31 05:33:48;;;;;;;11.47;10.57;;;11.70;99.90;;;;;;4977239;28;20505;-70
2021/10/31 05:36:16;;;;;;;12.47;11.23;;;11.70;99.90;;;;;;4975715;28;20457;-70
2021/10/31 05:38:43;;;;;;;11.20;10.10;;;11.60;99.90;;;;;;4975922;28;20821;-70
2021/10/31 05:41:10;;;;;;;10.90;9.90;;;11.60;99.90;;;;;;4975634;28;21016;-70
2021/10/31 05:43:36;;;;;;;12.93;11.73;;;11.60;99.90;;;;;;4976177;28;20458;-70
2021/10/31 05:46:03;;;;;;;11.50;10.50;;;11.60;99.90;;;;;;4976093;28;20479;-70
2021/10/31 05:48:31;;;;;;;13.13;11.83;;;11.50;99.90;;;;;;4979344;28;20976;-70
2021/10/31 05:50:58;;;;;;;12.67;11.50;;;11.50;99.90;;;;;;4982345;28;20479;-70
2021/10/31 05:53:26;;;;;;;13.43;11.87;;;11.40;99.90;;;;;;4982136;28;20498;-70
2021/10/31 05:55:53;;;;;;;12.00;10.90;;;11.40;99.90;;;;;;4978846;28;20451;-69
2021/10/31 05:58:19;;;;;;;11.37;10.47;;;11.40;99.90;;;;;;4993377;28;20464;-70
2021/10/31 06:00:47;;;;;;;11.53;10.43;;;11.50;99.90;;;;;;4985891;28;20490;-70
2021/10/31 06:03:13;;;;;;;11.70;10.60;;;11.50;99.90;;;;;;4980550;28;20509;-70
2021/10/31 06:05:43;;;;;;;11.23;10.23;;;11.60;99.90;;;;;;4991790;28;20454;-70
2021/10/31 06:08:14;;;;;;;11.73;10.60;;;11.50;99.90;;;;;;4983173;28;20569;-70
2021/10/31 06:10:43;;;;;;;11.40;10.40;;;11.60;99.90;;;;;;4979971;28;20489;-70
2021/10/31 06:13:09;;;;;;;12.07;10.90;;;11.60;99.90;;;;;;4979928;28;20458;-70
2021/10/31 06:15:37;;;;;;;11.70;10.70;;;11.60;99.90;;;;;;4981206;28;20798;-70
2021/10/31 06:18:04;;;;;;;12.50;11.37;;;11.70;99.90;;;;;;4979826;28;20964;-70
2021/10/31 06:20:31;;;;;;;13.10;11.90;;;11.70;99.90;;;;;;4979190;28;20474;-70
2021/10/31 06:22:57;;;;;;;12.53;11.33;;;11.80;99.90;;;;;;4978914;28;20465;-71
2021/10/31 06:25:24;;;;;;;11.70;10.67;;;11.80;99.90;;;;;;4978825;28;20450;-70
2021/10/31 06:27:52;;;;;;;12.00;11.00;;;11.90;99.90;;;;;;4978820;28;20489;-70
2021/10/31 06:30:19;;;;;;;11.87;10.83;;;11.90;99.90;;;;;;4978753;28;20465;-70
2021/10/31 06:32:46;;;;;;;12.90;10.07;;;11.90;99.90;;;;;;4979159;28;20462;-70
2021/10/31 06:35:12;;;;;;;12.40;11.20;;;12.00;99.90;;;;;;4979014;28;20461;-70
2021/10/31 06:37:39;;;;;;;11.47;10.40;;;12.00;99.90;;;;;;4978863;28;20529;-71
2021/10/31 06:40:07;;;;;;;11.17;10.30;;;12.00;99.90;;;;;;4978748;28;20466;-71
2021/10/31 06:42:34;;;;;;;12.20;11.20;;;11.90;99.90;;;;;;4978410;28;20480;-70
2021/10/31 06:45:02;;;;;;;12.30;11.10;;;12.00;99.90;;;;;;4978541;28;20466;-71
2021/10/31 06:47:29;;;;;;;11.93;10.90;;;11.90;99.90;;;;;;4978274;28;20533;-70
2021/10/31 06:49:57;;;;;;;11.17;10.17;;;11.90;99.90;;;;;;4978915;28;20455;-71
2021/10/31 06:52:23;;;;;;;10.67;9.67;;;12.10;99.90;;;;;;4978632;28;20475;-72
2021/10/31 06:54:50;;;;;;;10.80;9.90;;;12.20;99.90;;;;;;4978504;28;20517;-72
2021/10/31 06:57:17;;;;;;;9.33;8.63;;;12.30;99.90;;;;;;4977985;28;20502;-73
2021/10/31 06:59:44;;;;;;;10.93;10.03;;;12.40;99.90;;;;;;4978298;28;20459;-72
2021/10/31 07:02:12;;;;;;;10.70;9.70;;;12.40;99.90;;;;;;4977091;28;20489;-73
2021/10/31 07:04:39;;;;;;;10.90;10.00;;;12.60;99.90;;;;;;4977476;28;20469;-72
2021/10/31 07:07:05;;;;;;;9.73;8.87;;;12.70;99.90;;;;;;4977455;28;20486;-74
2021/10/31 07:09:32;;;;;;;10.00;9.20;;;12.80;99.90;;;;;;4976179;28;20954;-73
2021/10/31 07:12:00;;;;;;;8.57;7.97;;;13.00;99.90;;;;;;4977484;28;20474;-71
2021/10/31 07:14:27;;;;;;;8.53;7.83;;;13.10;99.90;;;;;;4977565;28;20482;-72
2021/10/31 07:16:54;;;;;;;8.43;7.67;;;13.40;99.90;;;;;;4977509;28;20559;-71
2021/10/31 07:19:22;;;;;;;9.30;8.50;;;13.70;99.90;;;;;;4977446;28;20461;-71
2021/10/31 07:21:48;;;;;;;10.03;9.23;;;14.00;99.90;;;;;;4977530;28;20475;-71
2021/10/31 07:24:15;;;;;;;9.27;8.53;;;14.40;99.90;;;;;;4978231;28;20459;-70
2021/10/31 07:26:42;;;;;;;9.50;8.70;;;15.10;99.90;;;;;;4977458;28;20481;-71
2021/10/31 07:29:09;;;;;;;10.07;9.17;;;15.40;99.90;;;;;;4977184;28;20454;-70
2021/10/31 07:31:39;;;;;;;10.10;9.20;;;15.70;99.90;;;;;;4977193;28;20502;-70
2021/10/31 07:34:08;;;;;;;10.07;9.27;;;15.90;99.90;;;;;;4976874;28;20525;-72
2021/10/31 07:36:36;;;;;;;9.17;8.37;;;16.40;99.90;;;;;;4978061;28;20450;-72
2021/10/31 07:39:03;;;;;;;7.50;6.90;;;16.80;99.90;;;;;;4986982;28;20468;-72
2021/10/31 07:41:30;;;;;;;7.07;6.57;;;17.60;99.90;;;;;;4978386;28;20479;-71
2021/10/31 07:43:57;;;;;;;6.60;6.20;;;18.40;99.90;;;;;;4977107;28;20941;-71
2021/10/31 07:46:24;;;;;;;6.90;6.40;;;19.20;99.90;;;;;;4976851;28;20964;-71
2021/10/31 07:48:51;;;;;;;6.73;6.23;;;19.80;99.90;;;;;;4977395;28;20459;-71
2021/10/31 07:51:18;;;;;;;6.07;5.60;;;20.70;99.90;;;;;;4976764;28;20998;-72
2021/10/31 07:53:46;;;;;;;6.43;5.80;;;21.20;99.90;;;;;;4976866;28;20465;-71
2021/10/31 07:56:15;;;;;;;5.60;5.20;;;21.50;99.90;;;;;;4977024;28;20484;-71
2021/10/31 07:58:44;;;;;;;5.57;5.20;;;21.30;99.90;;;;;;4976734;28;20458;-71
2021/10/31 08:01:12;;;;;;;5.37;4.83;;;21.40;99.90;;;;;;4976811;28;20542;-70
2021/10/31 08:03:38;;;;;;;6.00;5.50;;;21.70;99.90;;;;;;4976765;28;20454;-71
2021/10/31 08:06:05;;;;;;;5.80;5.40;;;22.10;99.90;;;;;;4976743;28;20454;-70
2021/10/31 08:08:32;;;;;;;5.20;4.80;;;22.10;99.90;;;;;;4976688;28;20482;-71
2021/10/31 08:11:01;;;;;;;4.40;4.10;;;22.20;99.90;;;;;;4979543;28;20482;-70
2021/10/31 08:13:28;;;;;;;4.90;4.60;;;22.30;99.90;;;;;;4979566;28;20513;-71
2021/10/31 08:15:55;;;;;;;4.73;4.07;;;22.40;99.90;;;;;;4989582;28;20458;-71
2021/10/31 08:18:22;;;;;;;4.57;4.33;;;22.20;99.00;;;;;;4984446;28;20458;-70
2021/10/31 08:20:49;;;;;;;5.50;5.10;;;21.80;99.20;;;;;;4976185;28;20582;-70
2021/10/31 08:23:16;;;;;;;5.10;4.70;;;21.30;99.80;;;;;;4977822;28;20455;-70
2021/10/31 08:25:44;;;;;;;4.90;4.50;;;20.80;99.90;;;;;;4976387;28;20459;-70
2021/10/31 08:28:15;;;;;;;5.93;5.53;;;20.10;99.90;;;;;;4983846;28;20474;-71
2021/10/31 08:30:44;;;;;;;5.43;5.03;;;19.40;99.90;;;;;;4990702;28;20521;-71
2021/10/31 08:33:19;;;;;;;6.23;5.70;;;19.10;99.90;;;;;;4976764;28;20553;-70
2021/10/31 08:35:46;;;;;;;7.03;6.40;;;19.10;99.90;;;;;;4976796;28;20485;-71
2021/10/31 08:38:13;;;;;;;6.93;6.40;;;18.90;99.90;;;;;;4976471;28;20934;-67
2021/10/31 08:40:40;;;;;;;6.83;6.33;;;19.00;99.90;;;;;;4976353;28;20485;-69
2021/10/31 08:43:08;;;;;;;7.60;7.00;;;18.70;99.90;;;;;;4976988;28;20819;-69
2021/10/31 08:45:37;;;;;;;6.77;6.30;;;18.40;99.90;;;;;;4976262;28;20820;-69
2021/10/31 08:48:04;;;;;;;6.90;6.30;;;17.70;99.90;;;;;;4976303;28;20490;-67
2021/10/31 08:50:31;;;;;;;7.03;6.53;;;17.20;99.90;;;;;;4975489;28;20458;-69
2021/10/31 08:52:57;;;;;;;6.60;6.10;;;16.70;99.90;;;;;;4975851;28;20793;-68
2021/10/31 08:55:24;;;;;;;6.33;5.90;;;16.70;99.90;;;;;;4975813;28;20461;-69
2021/10/31 08:57:51;;;;;;;8.80;6.60;;;17.30;99.90;;;;;;4975835;28;20454;-69
2021/10/31 09:00:18;;;;;;;5.83;5.43;;;18.10;99.90;;;;;;4975511;28;20458;-68
2021/10/31 09:02:46;;;;;;;6.67;6.17;;;18.60;99.90;;;;;;4975705;28;20446;-67
2021/10/31 09:05:13;;;;;;;7.23;6.60;;;19.10;99.90;;;;;;4975575;28;20455;-69
2021/10/31 09:07:40;;;;;;;7.10;6.50;;;19.90;99.90;;;;;;4975724;28;20833;-71
2021/10/31 09:10:08;;;;;;;6.20;5.80;;;20.70;99.90;;;;;;4976711;28;20454;-70
2021/10/31 09:12:34;;;;;;;5.87;5.47;;;21.70;99.90;;;;;;4975146;28;20467;-71
2021/10/31 09:15:01;;;;;;;5.97;5.57;;;22.60;99.90;;;;;;4975919;28;20458;-71
2021/10/31 09:17:28;;;;;;;5.53;5.03;;;23.50;99.90;;;;;;4978518;28;20451;-71
2021/10/31 09:19:56;;;;;;;6.33;5.83;;;24.50;98.80;;;;;;4977777;28;20466;-70
2021/10/31 09:22:23;;;;;;;5.90;5.40;;;25.30;96.30;;;;;;4976071;28;20479;-70
2021/10/31 09:24:50;;;;;;;5.37;4.93;;;26.00;94.10;;;;;;4976345;28;20442;-70
2021/10/31 09:27:19;;;;;;;4.90;4.60;;;26.40;92.20;;;;;;4976017;28;20484;-70
2021/10/31 09:29:46;;;;;;;4.90;4.50;;;27.00;90.30;;;;;;4977940;28;20790;-70
2021/10/31 09:32:13;;;;;;;5.13;4.83;;;27.60;86.40;;;;;;4975888;28;20834;-71
2021/10/31 09:34:40;;;;;;;6.00;5.20;;;27.70;83.20;;;;;;4979614;28;20450;-71
2021/10/31 09:37:08;;;;;;;7.00;6.30;;;27.70;83.10;;;;;;4979799;28;20513;-71
2021/10/31 09:39:35;;;;;;;15.70;12.60;;;27.30;82.20;;;;;;4980225;28;20489;-71
2021/10/31 09:42:03;;;;;;;8.93;7.87;;;26.70;84.40;;;;;;4979811;28;20482;-70
2021/10/31 09:44:32;;;;;;;6.00;5.50;;;27.10;83.40;;;;;;4980245;28;20465;-70
2021/10/31 09:46:59;;;;;;;8.20;6.60;;;27.00;81.80;;;;;;4980398;28;20460;-69
2021/10/31 09:49:26;;;;;;;7.00;6.30;;;26.80;82.30;;;;;;4980820;28;20846;-71
2021/10/31 09:51:54;;;;;;;5.20;4.80;;;26.40;81.00;;;;;;4980044;28;20870;-69
2021/10/31 09:54:22;;;;;;;6.00;5.60;;;26.30;82.80;;;;;;4979647;28;20458;-71
2021/10/31 09:56:48;;;;;;;5.97;5.37;;;26.10;83.10;;;;;;4979190;28;20608;-70
2021/10/31 09:59:17;;;;;;;5.63;5.23;;;26.30;83.70;;;;;;4979011;28;20458;-71
2021/10/31 10:01:52;;;;;;;5.77;5.37;;;26.90;82.90;;;;;;4978644;28;20490;-72
2021/10/31 10:04:27;;;;;;;5.40;4.90;;;27.10;82.40;;;;;;4978793;28;20438;-71
2021/10/31 10:06:55;;;;;;;5.90;5.50;;;27.60;79.50;;;;;;4978627;28;21065;-73
2021/10/31 10:09:24;;;;;;;5.83;5.37;;;27.80;77.90;;;;;;4978618;28;20452;-69
2021/10/31 10:11:51;;;;;;;5.10;4.77;;;27.60;76.60;;;;;;4979904;28;20832;-69
2021/10/31 10:14:23;;;;;;;5.67;5.17;;;27.40;77.90;;;;;;4978650;28;20446;-69
2021/10/31 10:16:54;;;;;;;4.63;4.30;;;27.40;77.40;;;;;;4979038;28;20439;-70
2021/10/31 10:19:24;;;;;;;4.50;4.30;;;27.30;76.90;;;;;;4984624;28;20417;-71
2021/10/31 10:21:56;;;;;;;5.03;4.73;;;27.00;79.20;;;;;;4991389;28;20522;-70
2021/10/31 10:24:24;;;;;;;5.10;4.70;;;27.10;78.60;;;;;;4978765;28;20537;-73
2021/10/31 10:26:55;;;;;;;4.90;4.40;;;27.80;78.60;;;;;;4978474;28;20451;-71
2021/10/31 10:29:24;;;;;;;6.03;5.10;;;28.10;76.70;;;;;;4978179;28;21012;-70
2021/10/31 10:31:52;;;;;;;5.30;4.90;;;28.20;76.20;;;;;;4978155;28;20850;-70
2021/10/31 10:34:33;;;;;;;5.83;5.33;;;28.00;76.80;;;;;;4978329;28;20973;-69
2021/10/31 10:37:07;;;;;;;5.30;4.90;;;28.40;75.80;;;;;;4978055;28;20443;-69
2021/10/31 10:39:36;;;;;;;5.37;4.87;;;28.40;75.40;;;;;;4979487;28;20448;-69
2021/10/31 10:42:04;;;;;;;5.40;5.10;;;28.20;75.20;;;;;;4980336;28;20470;-70
2021/10/31 10:44:32;;;;;;;5.37;5.03;;;27.20;76.90;;;;;;4982332;28;20518;-71
2021/10/31 10:47:02;;;;;;;4.73;4.43;;;27.00;78.30;;;;;;4981706;28;20482;-70
2021/10/31 10:49:32;;;;;;;5.27;4.97;;;26.70;80.10;;;;;;4980078;28;20479;-70
2021/10/31 10:52:19;;;;;;;4.20;3.90;;;26.20;81.10;;;;;;4979759;28;20511;-70
2021/10/31 10:54:51;;;;;;;5.33;5.00;;;25.90;83.40;;;;;;4979592;28;20527;-72
2021/10/31 10:57:18;;;;;;;4.53;4.23;;;25.40;84.10;;;;;;4979870;28;20549;-71
2021/10/31 10:59:50;;;;;;;5.83;4.60;;;25.00;85.20;;;;;;4999738;28;20435;-72
2021/10/31 11:02:18;;;;;;;4.47;4.17;;;24.70;88.60;;;;;;4981685;28;20487;-72
2021/10/31 11:04:47;;;;;;;4.63;4.33;;;24.40;87.50;;;;;;4979466;28;20455;-73
2021/10/31 11:07:15;;;;;;;4.67;4.23;;;23.90;88.50;;;;;;4980793;28;20478;-72
2021/10/31 11:09:44;;;;;;;4.50;4.10;;;23.60;90.10;;;;;;4989642;28;20448;-68
2021/10/31 11:12:23;;;;;;;4.67;4.37;;;23.40;90.60;;;;;;4987342;28;20477;-70
2021/10/31 11:14:52;;;;;;;4.80;4.40;;;23.20;91.80;;;;;;4979093;28;20463;-69
2021/10/31 11:17:19;;;;;;;4.87;4.50;;;23.10;91.20;;;;;;4979160;28;20454;-69
2021/10/31 11:19:46;;;;;;;5.27;4.77;;;23.10;91.60;;;;;;4980725;28;20465;-70
2021/10/31 11:22:13;;;;;;;5.00;4.70;;;23.00;92.00;;;;;;4979784;28;20471;-70
2021/10/31 11:24:41;;;;;;;4.80;4.50;;;22.90;91.60;;;;;;4979487;28;20458;-70
2021/10/31 11:27:09;;;;;;;4.70;4.30;;;23.00;92.60;;;;;;4979898;28;20782;-70
2021/10/31 11:29:37;;;;;;;4.73;4.43;;;22.80;92.30;;;;;;4978564;28;20463;-70
2021/10/31 11:32:05;;;;;;;4.40;4.10;;;23.00;93.10;;;;;;4977914;28;20483;-69
2021/10/31 11:34:32;;;;;;;4.97;4.17;;;23.10;91.60;;;;;;4977068;28;20450;-70
2021/10/31 11:37:00;;;;;;;5.13;4.27;;;23.20;91.30;;;;;;4977738;28;20550;-70
2021/10/31 11:39:27;;;;;;;4.57;4.17;;;23.20;90.70;;;;;;4977742;28;20455;-70
2021/10/31 11:41:57;;;;;;;4.60;4.30;;;23.30;90.90;;;;;;4977264;28;20482;-69
2021/10/31 11:44:29;;;;;;;5.37;5.00;;;23.40;92.00;;;;;;4977670;28;20463;-71
2021/10/31 11:46:58;;;;;;;4.77;4.37;;;23.20;91.30;;;;;;4980008;28;20439;-70
2021/10/31 11:49:24;;;;;;;4.70;4.37;;;23.00;91.50;;;;;;4976890;28;20602;-69
2021/10/31 11:51:54;;;;;;;5.17;4.57;;;22.90;92.50;;;;;;4976775;28;20485;-69
2021/10/31 11:54:21;;;;;;;4.30;4.00;;;22.80;92.80;;;;;;4976925;28;20459;-69
2021/10/31 11:56:52;;;;;;;4.40;4.10;;;22.90;92.60;;;;;;4986675;28;20461;-69
2021/10/31 11:59:21;;;;;;;4.23;3.93;;;22.90;92.70;;;;;;4984796;28;20760;-68
2021/10/31 12:01:49;;;;;;;6.03;4.50;;;22.90;92.10;;;;;;4977022;28;20497;-67
2021/10/31 12:04:58;;;;;;;6.43;3.90;;;23.10;92.00;;;;;;4976610;28;20458;-68
2021/10/31 12:07:40;;;;;;;4.77;4.37;;;23.40;92.00;;;;;;4976264;28;20455;-71
2021/10/31 12:10:25;;;;;;;3.50;3.30;;;23.50;91.90;;;;;;4976756;28;20443;-70
2021/10/31 12:13:11;;;;;;;3.63;3.43;;;23.70;91.40;;;;;;4976848;28;20538;-70
2021/10/31 12:15:38;;;;;;;3.77;3.57;;;23.90;90.50;;;;;;4978191;28;20440;-70
2021/10/31 12:18:07;;;;;;;5.90;3.80;;;23.70;88.20;;;;;;4981492;28;20458;-71
2021/10/31 12:20:51;;;;;;;4.00;3.50;;;23.70;89.70;;;;;;4979355;28;20825;-70
2021/10/31 12:23:21;;;;;;;4.33;3.77;;;23.60;90.30;;;;;;4976600;28;20454;-70
2021/10/31 12:25:49;;;;;;;4.47;4.17;;;23.60;88.20;;;;;;4976525;28;20458;-70
2021/10/31 12:28:37;;;;;;;4.60;4.20;;;23.50;89.10;;;;;;4976291;28;20522;-70
2021/10/31 12:31:23;;;;;;;4.13;3.83;;;23.40;91.40;;;;;;4971691;28;20479;-69
2021/10/31 12:34:11;;;;;;;3.87;3.57;;;23.30;90.00;;;;;;4976170;28;20910;-69
2021/10/31 12:36:40;;;;;;;4.63;3.40;;;23.50;90.50;;;;;;4979316;28;20449;-70
2021/10/31 12:39:40;;;;;;;4.33;3.10;;;23.60;90.80;;;;;;4979486;28;20462;-70
2021/10/31 12:42:15;;;;;;;2.30;2.20;;;23.70;88.90;;;;;;4977559;28;20482;-70
2021/10/31 12:44:44;;;;;;;2.00;1.90;;;23.70;84.50;;;;;;4978689;28;20455;-70
2021/10/31 12:47:15;;;;;;;2.13;2.03;;;23.70;82.00;;;;;;4976211;28;20541;-69
2021/10/31 12:49:42;;;;;;;5.10;2.80;;;23.70;80.20;;;;;;4976463;28;20530;-69
2021/10/31 12:52:21;;;;;;;2.43;2.33;;;23.90;83.60;;;;;;4975737;28;21000;-69
2021/10/31 12:54:56;;;;;;;2.33;2.10;;;23.90;75.90;;;;;;4976429;28;20442;-69
2021/10/31 12:57:25;;;;;;;2.00;1.90;;;23.90;73.90;;;;;;4975411;28;20496;-70
2021/10/31 12:59:55;;;;;;;2.23;2.13;;;23.90;74.70;;;;;;4975850;28;20797;-70
2021/10/31 13:02:23;;;;;;;1.70;1.70;;;23.80;78.70;;;;;;4978065;28;20490;-69
2021/10/31 13:04:54;;;;;;;2.40;2.30;;;23.80;76.90;;;;;;4980222;28;20459;-70
2021/10/31 13:07:25;;;;;;;1.90;1.80;;;23.70;79.40;;;;;;4983376;28;20445;-69
2021/10/31 13:09:53;;;;;;;2.13;2.03;;;23.80;78.10;;;;;;4982755;28;20594;-70
2021/10/31 13:12:29;;;;;;;1.90;1.80;;;23.80;77.50;;;;;;4976302;28;20472;-70
2021/10/31 13:15:08;;;;;;;2.50;2.30;;;23.80;78.50;;;;;;4975788;28;20815;-70
2021/10/31 13:17:38;;;;;;;2.00;1.80;;;23.70;71.60;;;;;;4976383;28;20505;-70
2021/10/31 13:20:14;;;;;;;3.10;2.10;;;23.60;70.50;;;;;;4975680;28;20450;-70
2021/10/31 13:22:42;;;;;;;1.87;1.77;;;23.70;71.40;;;;;;4975253;28;20451;-70
2021/10/31 13:25:12;;;;;;;2.10;2.00;;;23.70;71.30;;;;;;4975540;28;20465;-70
2021/10/31 13:27:44;;;;;;;3.50;1.90;;;23.70;72.30;;;;;;4975500;28;20459;-70
2021/10/31 13:30:13;;;;;;;2.00;1.90;;;23.70;71.30;;;;;;4975297;28;20471;-70
2021/10/31 13:32:40;;;;;;;2.10;1.90;;;23.60;70.50;;;;;;4975490;28;20469;-70
2021/10/31 13:35:07;;;;;;;1.83;1.73;;;23.50;70.40;;;;;;4975790;28;20510;-70
2021/10/31 13:37:34;;;;;;;2.30;2.10;;;23.40;70.80;;;;;;4975647;28;20461;-69
2021/10/31 13:40:04;;;;;;;2.37;2.27;;;23.40;73.10;;;;;;4975322;28;20457;-70
2021/10/31 13:42:33;;;;;;;1.90;1.80;;;23.50;72.30;;;;;;4975761;28;20499;-70
2021/10/31 13:45:03;;;;;;;1.73;1.70;;;23.60;71.20;;;;;;4997460;28;20447;-70
2021/10/31 13:47:38;;;;;;;2.37;2.27;;;23.70;69.70;;;;;;4981959;28;20439;-70
2021/10/31 13:50:09;;;;;;;1.70;1.70;;;23.50;67.80;;;;;;4977034;28;20505;-70
2021/10/31 13:52:37;;;;;;;2.37;2.27;;;23.20;67.80;;;;;;4978913;28;21032;-70
2021/10/31 13:55:07;;;;;;;2.33;2.20;;;23.10;70.40;;;;;;4979945;28;20452;-70
2021/10/31 13:57:36;;;;;;;1.77;1.70;;;22.90;69.80;;;;;;4991257;28;20443;-68
2021/10/31 14:00:12;;;;;;;2.27;1.80;;;22.80;69.40;;;;;;4975878;28;20455;-68
2021/10/31 14:02:40;;;;;;;1.97;1.87;;;22.80;69.10;;;;;;4975319;28;20474;-68
2021/10/31 14:05:09;;;;;;;2.03;1.93;;;22.70;69.50;;;;;;4975273;28;20464;-67
2021/10/31 14:07:38;;;;;;;2.20;2.07;;;22.70;70.10;;;;;;4982337;28;20451;-67
2021/10/31 14:10:06;;;;;;;1.77;1.67;;;22.80;75.00;;;;;;4986438;28;20486;-68
2021/10/31 14:12:33;;;;;;;1.93;1.90;;;22.80;69.10;;;;;;4979039;28;20549;-68
2021/10/31 14:15:03;;;;;;;2.20;2.10;;;22.70;69.20;;;;;;4975338;28;20455;-68
2021/10/31 14:17:31;;;;;;;1.83;1.70;;;22.70;73.80;;;;;;4977477;28;20450;-67
2021/10/31 14:20:00;;;;;;;1.90;1.77;;;22.70;73.10;;;;;;4979504;28;20447;-67
2021/10/31 14:22:41;;;;;;;2.13;2.03;;;22.70;69.80;;;;;;4979711;28;20486;-68
2021/10/31 14:25:10;;;;;;;2.07;1.97;;;22.60;69.20;;;;;;4979446;28;20446;-68
2021/10/31 14:27:39;;;;;;;2.07;1.97;;;22.60;69.30;;;;;;4979605;28;20465;-68
2021/10/31 14:30:14;;;;;;;2.97;2.77;;;22.50;69.60;;;;;;4979020;28;20479;-68
2021/10/31 14:32:52;;;;;;;2.30;2.20;;;22.40;70.10;;;;;;4978181;28;20461;-68
2021/10/31 14:35:20;;;;;;;3.43;2.00;;;22.30;70.40;;;;;;4978053;28;20933;-67
2021/10/31 14:38:07;;;;;;;2.67;2.47;;;22.30;72.60;;;;;;4978365;28;20469;-68
2021/10/31 14:40:35;;;;;;;1.80;1.70;;;22.30;72.30;;;;;;4980130;28;20438;-68
2021/10/31 14:43:17;;;;;;;2.13;2.03;;;22.30;75.80;;;;;;4978838;28;20505;-68
2021/10/31 14:45:54;;;;;;;1.93;1.83;;;22.30;75.10;;;;;;4978365;28;20443;-68
2021/10/31 14:48:31;;;;;;;2.73;1.80;;;22.30;80.20;;;;;;4979483;28;20439;-68
2021/10/31 14:51:15;;;;;;;1.97;1.90;;;22.20;76.60;;;;;;4978289;28;20478;-68
2021/10/31 14:53:53;;;;;;;2.30;2.10;;;22.20;79.40;;;;;;4978003;28;20451;-70
2021/10/31 14:56:23;;;;;;;2.50;2.40;;;22.20;77.90;;;;;;4978149;28;20438;-68
2021/10/31 14:58:50;;;;;;;2.00;1.90;;;22.00;74.70;;;;;;4978809;28;20498;-68
2021/10/31 15:01:22;;;;;;;3.80;2.23;;;21.90;75.10;;;;;;4977517;28;20533;-68
2021/10/31 15:03:50;;;;;;;1.90;1.80;;;21.90;81.50;;;;;;4977812;28;20890;-68
2021/10/31 15:06:17;;;;;;;1.70;1.60;;;21.80;81.40;;;;;;4978024;28;20447;-68
2021/10/31 15:08:43;;;;;;;2.57;2.47;;;21.70;80.00;;;;;;4977819;28;20938;-68
2021/10/31 15:11:12;;;;;;;1.83;1.73;;;21.60;78.90;;;;;;4977833;28;20475;-68
2021/10/31 15:13:39;;;;;;;4.23;2.43;;;21.50;81.70;;;;;;4977601;28;20465;-68
2021/10/31 15:16:07;;;;;;;2.70;2.50;;;21.30;80.10;;;;;;4977692;28;20458;-68
2021/10/31 15:18:34;;;;;;;2.43;1.70;;;21.10;78.60;;;;;;4977503;28;20450;-68
2021/10/31 15:21:03;;;;;;;2.07;1.97;;;21.00;78.50;;;;;;4977490;28;20475;-68
2021/10/31 15:23:30;;;;;;;5.73;2.33;;;20.90;80.20;;;;;;4981761;28;20465;-68
2021/10/31 15:25:57;;;;;;;2.10;1.97;;;20.80;82.70;;;;;;4983832;28;20478;-68
2021/10/31 15:28:24;;;;;;;2.33;1.93;;;20.70;84.00;;;;;;4977715;28;20464;-68
2021/10/31 15:30:51;;;;;;;2.50;2.30;;;20.60;81.40;;;;;;4976282;28;20907;-68
2021/10/31 15:33:22;;;;;;;2.50;2.30;;;20.50;84.40;;;;;;4977426;28;20450;-68
2021/10/31 15:35:49;;;;;;;2.70;2.50;;;20.50;86.10;;;;;;4977419;28;20509;-68
2021/10/31 15:38:17;;;;;;;2.30;2.20;;;20.40;84.00;;;;;;4977439;28;20455;-68
2021/10/31 15:40:44;;;;;;;2.20;2.10;;;20.40;88.50;;;;;;4977222;28;20502;-68
2021/10/31 15:43:11;;;;;;;2.67;2.40;;;20.30;84.10;;;;;;4977525;28;20813;-68
2021/10/31 15:45:37;;;;;;;2.40;2.30;;;20.30;84.80;;;;;;4977076;28;20458;-67
2021/10/31 15:48:05;;;;;;;4.33;2.40;;;20.20;87.50;;;;;;4977219;28;20461;-68
2021/10/31 15:50:32;;;;;;;2.83;2.23;;;20.20;88.30;;;;;;4976839;28;20481;-70
2021/10/31 15:52:59;;;;;;;2.47;1.97;;;20.10;83.60;;;;;;4980215;28;20440;-70
2021/10/31 15:55:30;;;;;;;2.37;2.27;;;20.00;83.20;;;;;;4989102;28;20451;-70
2021/10/31 15:57:57;;;;;;;3.30;2.50;;;19.90;83.30;;;;;;4988763;28;20439;-70
2021/10/31 16:00:24;;;;;;;2.30;2.20;;;19.80;83.80;;;;;;4982554;28;20462;-69
2021/10/31 16:02:57;;;;;;;2.67;2.43;;;19.70;84.10;;;;;;4983229;28;20439;-70
2021/10/31 16:05:24;;;;;;;2.80;2.60;;;19.60;84.60;;;;;;4985316;28;20443;-71
2021/10/31 16:07:52;;;;;;;2.53;2.40;;;19.50;85.30;;;;;;4981579;28;20534;-70
2021/10/31 16:10:19;;;;;;;3.17;2.97;;;19.40;85.70;;;;;;4987367;28;20529;-69
2021/10/31 16:12:48;;;;;;;3.37;2.97;;;19.30;86.20;;;;;;4980495;28;20458;-70
2021/10/31 16:15:14;;;;;;;3.40;3.20;;;19.20;86.60;;;;;;4979495;28;20461;-70
2021/10/31 16:17:41;;;;;;;2.80;2.60;;;19.00;87.30;;;;;;4990684;28;20437;-71
2021/10/31 16:20:09;;;;;;;3.07;2.87;;;18.90;87.90;;;;;;4991324;28;20447;-72
2021/10/31 16:22:38;;;;;;;3.47;3.17;;;18.80;88.50;;;;;;4980628;28;20501;-70
2021/10/31 16:25:06;;;;;;;4.07;3.77;;;18.70;89.20;;;;;;4979111;28;20458;-70
2021/10/31 16:27:32;;;;;;;3.30;3.10;;;18.60;89.80;;;;;;4978332;28;20968;-70
2021/10/31 16:30:01;;;;;;;3.30;3.10;;;18.50;90.10;;;;;;4978596;28;20478;-69
2021/10/31 16:32:29;;;;;;;3.93;3.63;;;18.50;90.40;;;;;;4978242;28;20474;-69
2021/10/31 16:34:56;;;;;;;4.60;3.27;;;18.40;90.50;;;;;;4979581;28;20493;-69
2021/10/31 16:37:23;;;;;;;4.03;3.73;;;18.40;90.70;;;;;;4978600;28;20450;-68
2021/10/31 16:39:50;;;;;;;3.30;3.10;;;18.30;90.90;;;;;;4978152;28;20510;-69
2021/10/31 16:42:17;;;;;;;10.90;3.50;;;18.30;91.20;;;;;;4978993;28;20481;-71
2021/10/31 16:44:44;;;;;;;3.70;3.40;;;18.20;91.50;;;;;;4982359;28;20545;-67
2021/10/31 16:47:18;;;;;;;3.60;3.37;;;18.20;92.80;;;;;;4978375;28;20443;-69
2021/10/31 16:49:45;;;;;;;3.90;3.50;;;18.10;92.00;;;;;;4978007;28;20546;-69
2021/10/31 16:52:12;;;;;;;3.47;3.27;;;18.10;92.30;;;;;;4977712;28;20526;-70
2021/10/31 16:54:40;;;;;;;3.63;3.10;;;18.00;92.50;;;;;;4978031;28;20480;-70
2021/10/31 16:57:07;;;;;;;4.23;3.83;;;18.00;92.60;;;;;;4982568;28;20469;-70
2021/10/31 16:59:34;;;;;;;4.70;4.00;;;17.90;92.70;;;;;;4983893;28;20459;-71
2021/10/31 17:02:01;;;;;;;3.30;3.10;;;17.80;93.00;;;;;;4977933;28;20529;-71
2021/10/31 17:04:29;;;;;;;4.17;3.70;;;17.80;93.30;;;;;;4984847;28;20459;-71
2021/10/31 17:06:56;;;;;;;4.23;3.83;;;17.70;93.60;;;;;;4989739;28;20942;-72
2021/10/31 17:09:23;;;;;;;5.07;3.93;;;17.70;93.90;;;;;;4985143;28;20454;-71
2021/10/31 17:11:50;;;;;;;3.97;3.67;;;17.60;94.40;;;;;;4979395;28;20471;-72
2021/10/31 17:14:16;;;;;;;7.00;4.30;;;17.50;94.70;;;;;;4978253;28;20470;-71
2021/10/31 17:16:43;;;;;;;5.20;3.87;;;17.40;95.00;;;;;;4978913;28;20458;-72
2021/10/31 17:19:12;;;;;;;9.70;4.10;;;17.40;95.40;;;;;;4978335;28;20549;-72
2021/10/31 17:21:42;;;;;;;5.90;4.30;;;17.30;95.60;;;;;;4977924;28;20482;-73
2021/10/31 17:24:10;;;;;;;5.87;4.77;;;17.30;95.80;;;;;;4977886;28;20466;-73
2021/10/31 17:26:39;;;;;;;4.83;4.27;;;17.20;96.00;;;;;;4976911;28;20800;-72
2021/10/31 17:29:06;;;;;;;5.13;4.73;;;17.20;96.20;;;;;;4976994;28;20462;-72
2021/10/31 17:31:33;;;;;;;4.77;4.33;;;17.10;96.60;;;;;;4977578;28;21009;-72
2021/10/31 17:34:00;;;;;;;5.63;5.23;;;17.10;96.80;;;;;;4977957;28;20459;-72
2021/10/31 17:36:27;;;;;;;6.23;4.53;;;17.00;97.00;;;;;;4980211;28;20458;-72
2021/10/31 17:38:55;;;;;;;4.50;4.20;;;17.00;97.30;;;;;;4977784;28;20455;-73
2021/10/31 17:41:22;;;;;;;4.80;4.40;;;16.90;97.50;;;;;;4977268;28;20474;-73
2021/10/31 17:43:49;;;;;;;5.60;5.10;;;16.90;97.70;;;;;;4978146;28;20478;-72
2021/10/31 17:46:16;;;;;;;4.80;4.40;;;16.80;98.00;;;;;;4977658;28;20541;-72
2021/10/31 17:48:42;;;;;;;5.10;4.60;;;16.80;98.30;;;;;;4977216;28;20454;-73
2021/10/31 17:51:09;;;;;;;5.70;5.20;;;16.80;98.60;;;;;;4976291;28;20837;-71
2021/10/31 17:53:36;;;;;;;6.57;5.50;;;16.70;98.90;;;;;;4978155;28;20455;-70